createdAt,value
2022-10-24T00:00:58.763Z,72.66
2022-10-24T00:03:33.403Z,73.37
2022-10-24T00:06:07.847Z,73.10
2022-10-24T00:08:42.929Z,72.62
2022-10-24T00:11:18.100Z,72.89
2022-10-24T00:13:51.422Z,72.93
2022-10-24T00:16:24.474Z,73.16
2022-10-24T00:18:58.533Z,72.72
2022-10-24T00:21:31.462Z,72.70
2022-10-24T00:24:04.258Z,72.69
2022-10-24T00:26:37.485Z,72.61
2022-10-24T00:29:11.155Z,72.92
2022-10-24T00:31:44.578Z,72.99
2022-10-24T00:34:18.828Z,72.94
2022-10-24T00:36:53.229Z,72.90
2022-10-24T00:39:27.915Z,72.56
2022-10-24T00:42:01.067Z,72.48
2022-10-24T00:44:38.394Z,72.30
2022-10-24T00:47:19.812Z,72.49
2022-10-24T00:50:00.771Z,72.03
2022-10-24T00:52:37.910Z,72.81
2022-10-24T00:55:12.796Z,72.60
2022-10-24T00:57:49.029Z,72.61
2022-10-24T01:00:26.683Z,71.89
2022-10-24T01:03:00.676Z,71.88
2022-10-24T01:05:41.285Z,72.06
2022-10-24T01:08:28.322Z,71.87
2022-10-24T01:11:12.426Z,72.41
2022-10-24T01:13:59.757Z,71.72
2022-10-24T01:16:42.943Z,71.53
2022-10-24T01:19:45.348Z,71.80
2022-10-24T01:22:23.884Z,71.02
2022-10-24T01:25:12.100Z,71.39
2022-10-24T01:28:01.738Z,70.99
2022-10-24T01:30:43.802Z,71.28
2022-10-24T01:33:21.696Z,71.04
2022-10-24T01:35:59.104Z,71.07
2022-10-24T01:38:36.746Z,70.60
2022-10-24T01:41:13.679Z,70.97
2022-10-24T01:46:33.527Z,70.93
2022-10-24T01:49:11.876Z,71.12
2022-10-24T01:51:46.299Z,71.00
2022-10-24T01:54:19.755Z,70.74
2022-10-24T01:56:53.129Z,71.25
2022-10-24T01:59:44.248Z,71.11
2022-10-24T02:02:22.432Z,70.86
2022-10-24T02:04:59.930Z,71.19
2022-10-24T02:07:38.071Z,70.54
2022-10-24T02:10:22.515Z,70.72
2022-10-24T02:13:00.975Z,70.52
2022-10-24T02:15:39.315Z,71.08
2022-10-24T02:18:16.277Z,70.68
2022-10-24T02:20:55.084Z,70.23
2022-10-24T02:23:35.025Z,70.43
2022-10-24T02:26:14.419Z,70.44
2022-10-24T02:28:50.947Z,70.48
2022-10-24T02:31:25.986Z,70.63
2022-10-24T02:34:02.489Z,70.35
2022-10-24T02:36:39.224Z,70.59
2022-10-24T02:39:14.006Z,70.17
2022-10-24T02:41:48.159Z,69.96
2022-10-24T02:44:22.987Z,70.60
2022-10-24T02:46:59.516Z,70.05
2022-10-24T02:49:37.281Z,70.46
2022-10-24T02:52:14.573Z,70.18
2022-10-24T02:54:48.843Z,70.21
2022-10-24T02:57:25.798Z,70.23
2022-10-24T03:00:01.449Z,70.30
2022-10-24T03:02:36.614Z,69.90
2022-10-24T03:05:11.671Z,70.61
2022-10-24T03:07:44.627Z,70.42
2022-10-24T03:10:17.539Z,69.58
2022-10-24T03:12:52.445Z,69.81
2022-10-24T03:15:34.365Z,70.15
2022-10-24T03:18:07.309Z,70.09
2022-10-24T03:20:41.401Z,70.08
2022-10-24T03:23:14.467Z,69.92
2022-10-24T03:25:47.275Z,70.02
2022-10-24T03:28:20.299Z,70.18
2022-10-24T03:30:53.741Z,69.80
2022-10-24T03:33:31.236Z,69.98
2022-10-24T03:36:06.584Z,69.73
2022-10-24T03:38:47.411Z,69.47
2022-10-24T03:41:21.888Z,69.72
2022-10-24T03:43:57.960Z,69.60
2022-10-24T03:46:34.143Z,69.39
2022-10-24T03:49:07.147Z,69.60
2022-10-24T03:51:42.346Z,69.56
2022-10-24T03:54:15.575Z,69.46
2022-10-24T03:56:51.516Z,68.88
2022-10-24T03:59:26.839Z,68.78
2022-10-24T04:02:01.611Z,69.25
2022-10-24T04:04:34.977Z,69.20
2022-10-24T04:07:12.039Z,68.70
2022-10-24T04:09:45.114Z,68.52
2022-10-24T04:12:21.040Z,68.69
2022-10-24T04:14:53.996Z,68.85
2022-10-24T04:17:27.125Z,68.78
2022-10-24T04:20:00.223Z,68.71
2022-10-24T04:22:34.777Z,68.96
2022-10-24T04:25:07.982Z,68.75
2022-10-24T04:27:40.873Z,68.96
2022-10-24T04:30:16.870Z,69.02
2022-10-24T04:32:49.996Z,68.85
2022-10-24T04:35:22.903Z,68.76
2022-10-24T04:37:59.343Z,68.84
2022-10-24T04:40:32.845Z,68.87
2022-10-24T04:43:05.754Z,68.76
2022-10-24T04:45:38.826Z,68.73
2022-10-24T04:48:11.844Z,68.72
2022-10-24T04:50:46.124Z,68.62
2022-10-24T04:53:22.770Z,68.48
2022-10-24T04:55:58.496Z,68.46
2022-10-24T04:58:31.806Z,68.58
2022-10-24T05:01:07.889Z,68.65
2022-10-24T05:03:41.154Z,68.80
2022-10-24T05:06:15.364Z,68.48
2022-10-24T05:08:49.969Z,68.69
2022-10-24T05:11:24.543Z,68.68
2022-10-24T05:13:57.445Z,68.20
2022-10-24T05:16:30.163Z,68.42
2022-10-24T05:19:02.897Z,67.91
2022-10-24T05:21:35.670Z,68.67
2022-10-24T05:24:10.351Z,68.12
2022-10-24T05:26:43.205Z,67.98
2022-10-24T05:29:16.001Z,67.97
2022-10-24T05:31:49.084Z,68.00
2022-10-24T05:34:21.999Z,67.90
2022-10-24T05:36:55.781Z,68.21
2022-10-24T05:39:30.201Z,68.20
2022-10-24T05:42:06.150Z,67.87
2022-10-24T05:44:39.131Z,68.38
2022-10-24T05:47:13.839Z,68.35
2022-10-24T05:49:47.208Z,68.07
2022-10-24T05:52:20.299Z,68.27
2022-10-24T05:55:06.430Z,68.88
2022-10-24T05:57:40.586Z,68.36
2022-10-24T06:00:14.239Z,68.41
2022-10-24T06:02:47.793Z,68.42
2022-10-24T06:05:20.863Z,68.08
2022-10-24T06:07:53.550Z,67.75
2022-10-24T06:10:27.846Z,67.86
2022-10-24T06:13:00.722Z,68.24
2022-10-24T06:15:33.986Z,68.62
2022-10-24T06:18:07.115Z,68.97
2022-10-24T06:20:40.013Z,69.47
2022-10-24T06:23:12.702Z,68.96
2022-10-24T06:25:47.302Z,69.04
2022-10-24T06:28:20.218Z,69.33
2022-10-24T06:30:54.908Z,69.39
2022-10-24T06:33:27.690Z,68.56
2022-10-24T06:36:01.424Z,68.83
2022-10-24T06:38:34.411Z,68.31
2022-10-24T06:41:09.179Z,68.69
2022-10-24T06:43:42.510Z,68.88
2022-10-24T06:46:17.430Z,69.03
2022-10-24T06:48:50.430Z,68.69
2022-10-24T06:51:23.761Z,68.56
2022-10-24T06:53:56.520Z,68.32
2022-10-24T06:56:30.936Z,68.22
2022-10-24T06:59:03.704Z,68.52
2022-10-24T07:01:36.757Z,68.44
2022-10-24T07:04:10.169Z,68.37
2022-10-24T07:06:42.888Z,69.04
2022-10-24T07:09:15.910Z,68.67
2022-10-24T07:11:50.103Z,68.62
2022-10-24T07:14:23.031Z,68.72
2022-10-24T07:16:55.773Z,68.16
2022-10-24T07:19:28.524Z,68.60
2022-10-24T07:22:01.332Z,69.02
2022-10-24T07:24:34.208Z,68.68
2022-10-24T07:27:08.435Z,68.32
2022-10-24T07:29:41.278Z,68.32
2022-10-24T07:32:14.202Z,68.07
2022-10-24T07:34:47.775Z,68.76
2022-10-24T07:37:20.828Z,68.64
2022-10-24T07:39:53.672Z,68.61
2022-10-24T07:42:27.768Z,69.18
2022-10-24T07:45:02.746Z,68.10
2022-10-24T07:47:35.588Z,67.91
2022-10-24T07:50:09.549Z,68.31
2022-10-24T07:52:42.357Z,68.56
2022-10-24T07:55:15.078Z,68.50
2022-10-24T07:57:49.182Z,68.35
2022-10-24T08:00:22.546Z,68.76
2022-10-24T08:02:55.551Z,68.85
2022-10-24T08:05:28.483Z,69.19
2022-10-24T08:08:24.783Z,69.41
2022-10-24T08:10:54.120Z,69.18
2022-10-24T08:13:28.203Z,69.61
2022-10-24T08:16:01.112Z,70.00
2022-10-24T08:18:38.712Z,69.92
2022-10-24T08:21:15.267Z,69.50
2022-10-24T08:23:50.366Z,70.03
2022-10-24T08:26:25.803Z,69.57
2022-10-24T08:29:00.124Z,69.78
2022-10-24T08:31:33.131Z,70.14
2022-10-24T08:34:06.404Z,69.72
2022-10-24T08:36:39.300Z,69.92
2022-10-24T08:39:12.798Z,69.55
2022-10-24T08:41:50.223Z,69.79
2022-10-24T08:44:30.810Z,69.78
2022-10-24T08:47:10.283Z,70.13
2022-10-24T08:49:51.107Z,70.41
2022-10-24T08:52:31.651Z,70.46
2022-10-24T08:55:25.069Z,69.86
2022-10-24T08:58:00.934Z,70.52
2022-10-24T09:00:43.241Z,70.38
2022-10-24T09:03:31.409Z,70.33
2022-10-24T09:06:15.739Z,70.24
2022-10-24T09:08:53.217Z,70.05
2022-10-24T09:11:34.348Z,69.84
2022-10-24T09:14:14.304Z,70.25
2022-10-24T09:16:53.530Z,70.77
2022-10-24T09:19:28.682Z,70.50
2022-10-24T09:22:03.489Z,70.68
2022-10-24T09:24:43.718Z,70.07
2022-10-24T09:29:59.995Z,70.81
2022-10-24T09:32:37.003Z,70.69
2022-10-24T09:35:17.055Z,70.79
2022-10-24T09:37:52.339Z,70.50
2022-10-24T09:40:28.925Z,70.49
2022-10-24T09:43:06.367Z,70.65
2022-10-24T09:45:41.808Z,70.80
2022-10-24T09:48:26.093Z,70.61
2022-10-24T09:51:03.556Z,70.37
2022-10-24T09:53:57.514Z,69.95
2022-10-24T09:56:41.507Z,70.63
2022-10-24T09:59:21.155Z,69.94
2022-10-24T10:01:54.151Z,69.93
2022-10-24T10:04:30.201Z,69.88
2022-10-24T10:07:10.333Z,70.17
2022-10-24T10:09:52.789Z,70.00
2022-10-24T10:12:34.646Z,69.85
2022-10-24T10:15:21.159Z,69.30
2022-10-24T10:17:56.238Z,69.54
2022-10-24T10:20:34.802Z,69.33
2022-10-24T10:23:24.357Z,69.17
2022-10-24T10:26:06.471Z,69.17
2022-10-24T10:28:46.996Z,68.99
2022-10-24T10:31:22.305Z,69.30
2022-10-24T10:34:21.479Z,69.49
2022-10-24T10:37:23.824Z,68.74
2022-10-24T10:40:17.003Z,69.16
2022-10-24T10:43:07.944Z,68.66
2022-10-24T10:45:43.164Z,68.73
2022-10-24T10:48:39.691Z,68.97
2022-10-24T10:51:23.808Z,68.53
2022-10-24T10:54:08.482Z,69.05
2022-10-24T10:56:49.620Z,68.94
2022-10-24T10:59:37.252Z,69.16
2022-10-24T11:02:28.179Z,68.76
2022-10-24T11:05:11.101Z,68.82
2022-10-24T11:07:49.020Z,69.15
2022-10-24T11:10:27.617Z,68.79
2022-10-24T11:13:07.196Z,69.23
2022-10-24T11:15:45.005Z,69.07
2022-10-24T11:18:23.565Z,69.06
2022-10-24T11:21:02.838Z,69.79
2022-10-24T11:26:21.578Z,69.43
2022-10-24T11:28:59.985Z,70.50
2022-10-24T11:31:38.887Z,69.47
2022-10-24T11:34:16.105Z,69.50
2022-10-24T11:36:55.798Z,69.75
2022-10-24T11:39:33.633Z,69.06
2022-10-24T11:42:15.880Z,68.92
2022-10-24T11:44:55.863Z,69.61
2022-10-24T11:47:42.380Z,69.20
2022-10-24T11:50:25.525Z,69.42
2022-10-24T11:53:05.597Z,68.96
2022-10-24T11:55:42.782Z,69.92
2022-10-24T11:58:21.090Z,69.08
2022-10-24T12:01:14.129Z,69.36
2022-10-24T12:04:05.789Z,69.29
2022-10-24T12:07:06.402Z,68.96
2022-10-24T12:09:52.663Z,69.27
2022-10-24T12:12:43.282Z,69.74
2022-10-24T12:15:32.335Z,69.50
2022-10-24T12:18:10.035Z,69.25
2022-10-24T12:20:43.502Z,69.19
2022-10-24T12:23:25.421Z,69.75
2022-10-24T12:26:07.276Z,69.27
2022-10-24T12:28:41.342Z,69.51
2022-10-24T12:31:27.426Z,69.24
2022-10-24T12:34:34.382Z,70.40
2022-10-24T12:37:12.239Z,70.22
2022-10-24T12:39:54.824Z,71.17
2022-10-24T12:43:14.732Z,69.87
2022-10-24T12:45:47.363Z,70.54
2022-10-24T12:48:36.938Z,69.94
2022-10-24T12:51:40.108Z,70.97
2022-10-24T12:54:18.656Z,70.01
2022-10-24T12:57:26.238Z,71.73
2022-10-24T13:00:01.571Z,72.30
2022-10-24T13:02:55.917Z,71.31
2022-10-24T13:05:47.899Z,70.27
2022-10-24T13:08:44.877Z,71.36
2022-10-24T13:11:36.738Z,69.51
2022-10-24T13:14:33.032Z,69.49
2022-10-24T13:17:13.176Z,69.66
2022-10-24T13:19:46.416Z,70.38
2022-10-24T13:22:34.148Z,69.63
2022-10-24T13:25:21.318Z,71.02
2022-10-24T13:28:30.329Z,70.35
2022-10-24T13:31:41.819Z,70.02
2022-10-24T13:34:24.264Z,70.60
2022-10-24T13:37:17.709Z,70.40
2022-10-24T13:39:54.661Z,71.13
2022-10-24T13:42:32.960Z,70.55
2022-10-24T13:45:22.758Z,70.46
2022-10-24T13:48:00.504Z,70.37
2022-10-24T13:50:37.554Z,70.14
2022-10-24T13:53:21.021Z,70.19
2022-10-24T13:56:10.451Z,70.52
2022-10-24T13:58:45.269Z,70.75
2022-10-24T14:01:21.111Z,70.21
2022-10-24T14:03:57.516Z,70.40
2022-10-24T14:06:34.228Z,70.86
2022-10-24T14:09:10.529Z,70.70
2022-10-24T14:11:47.587Z,70.50
2022-10-24T14:14:28.850Z,70.29
2022-10-24T14:17:23.035Z,70.12
2022-10-24T14:19:58.932Z,70.92
2022-10-24T14:22:39.677Z,70.01
2022-10-24T14:25:24.295Z,70.40
2022-10-24T14:28:01.340Z,70.24
2022-10-24T14:30:35.170Z,69.76
2022-10-24T14:33:20.742Z,70.10
2022-10-24T14:35:57.878Z,70.05
2022-10-24T14:38:31.884Z,70.61
2022-10-24T14:41:09.816Z,70.16
2022-10-24T14:43:45.864Z,69.99
2022-10-24T14:46:39.953Z,70.27
2022-10-24T14:49:31.867Z,70.07
2022-10-24T14:52:11.708Z,70.36
2022-10-24T14:54:51.927Z,69.95
2022-10-24T14:57:24.785Z,70.32
2022-10-24T15:00:07.256Z,70.28
2022-10-24T15:02:43.278Z,70.32
2022-10-24T15:05:30.883Z,70.09
2022-10-24T15:08:25.345Z,69.70
2022-10-24T15:11:25.636Z,69.58
2022-10-24T15:14:06.638Z,69.82
2022-10-24T15:16:42.153Z,69.65
2022-10-24T15:19:19.279Z,69.40
2022-10-24T15:21:52.102Z,70.57
2022-10-24T15:24:27.667Z,69.24
2022-10-24T15:27:11.201Z,69.54
2022-10-24T15:29:47.138Z,70.84
2022-10-24T15:32:21.349Z,70.17
2022-10-24T15:34:55.357Z,69.84
2022-10-24T15:37:28.623Z,70.47
2022-10-24T15:40:03.911Z,70.16
2022-10-24T15:42:36.643Z,70.79
2022-10-24T15:45:17.944Z,70.79
2022-10-24T15:47:54.582Z,70.86
2022-10-24T15:50:27.476Z,70.08
2022-10-24T15:53:03.103Z,70.85
2022-10-24T15:55:35.891Z,72.01
2022-10-24T15:58:12.049Z,70.19
2022-10-24T16:00:45.294Z,71.04
2022-10-24T16:03:23.427Z,70.69
2022-10-24T16:05:58.154Z,70.94
2022-10-24T16:08:31.434Z,71.95
2022-10-24T16:11:07.605Z,70.73
2022-10-24T16:13:43.884Z,71.46
2022-10-24T16:16:16.635Z,71.00
2022-10-24T16:18:50.790Z,73.26
2022-10-24T16:21:23.769Z,72.03
2022-10-24T16:23:56.497Z,72.69
2022-10-24T16:26:29.427Z,71.73
2022-10-24T16:29:05.835Z,70.43
2022-10-24T16:31:38.788Z,72.65
2022-10-24T16:34:12.786Z,73.34
2022-10-24T16:36:45.670Z,70.57
2022-10-24T16:39:18.666Z,72.60
2022-10-24T16:41:55.212Z,72.82
2022-10-24T16:44:28.542Z,74.01
2022-10-24T16:47:01.479Z,72.58
2022-10-24T16:49:35.768Z,71.28
2022-10-24T16:52:08.980Z,71.30
2022-10-24T16:54:42.072Z,72.78
2022-10-24T16:57:15.046Z,73.16
2022-10-24T16:59:48.410Z,72.94
2022-10-24T17:02:21.440Z,70.93
2022-10-24T17:04:55.664Z,72.73
2022-10-24T17:07:28.437Z,72.73
2022-10-24T17:10:01.217Z,73.69
2022-10-24T17:12:34.165Z,72.12
2022-10-24T17:15:08.742Z,71.28
2022-10-24T17:17:41.529Z,71.49
2022-10-24T17:20:17.334Z,71.01
2022-10-24T17:22:50.729Z,71.46
2022-10-24T17:25:25.880Z,71.65
2022-10-24T17:27:58.916Z,72.34
2022-10-24T17:30:31.683Z,72.00
2022-10-24T17:33:04.667Z,72.06
2022-10-24T17:35:42.790Z,72.42
2022-10-24T17:38:29.062Z,71.97
2022-10-24T17:41:08.837Z,71.10
2022-10-24T17:43:41.947Z,72.34
2022-10-24T17:46:18.406Z,70.96
2022-10-24T17:48:51.656Z,71.10
2022-10-24T17:51:28.329Z,71.45
2022-10-24T17:54:01.350Z,71.27
2022-10-24T17:56:33.951Z,72.25
2022-10-24T17:59:06.642Z,70.96
2022-10-24T18:01:39.703Z,71.49
2022-10-24T18:04:12.785Z,71.59
2022-10-24T18:06:53.354Z,70.58
2022-10-24T18:09:29.729Z,71.06
2022-10-24T18:12:02.841Z,70.72
2022-10-24T18:14:37.458Z,70.94
2022-10-24T18:17:11.245Z,71.96
2022-10-24T18:19:44.338Z,71.05
2022-10-24T18:22:18.802Z,70.89
2022-10-24T18:24:51.618Z,71.28
2022-10-24T18:27:24.638Z,71.92
2022-10-24T18:29:57.375Z,71.63
2022-10-24T18:32:30.316Z,71.14
2022-10-24T18:35:03.230Z,71.07
2022-10-24T18:37:38.086Z,70.74
2022-10-24T18:40:12.214Z,71.23
2022-10-24T18:42:51.080Z,71.32
2022-10-24T18:45:27.210Z,71.52
2022-10-24T18:48:01.038Z,71.60
2022-10-24T18:50:34.526Z,72.29
2022-10-24T18:53:24.494Z,71.34
2022-10-24T18:55:57.764Z,70.93
2022-10-24T18:58:31.096Z,71.09
2022-10-24T19:01:04.677Z,70.46
2022-10-24T19:03:38.578Z,71.06
2022-10-24T19:06:16.947Z,71.50
2022-10-24T19:08:53.189Z,70.89
2022-10-24T19:11:26.438Z,71.50
2022-10-24T19:13:59.536Z,71.24
2022-10-24T19:16:32.686Z,71.86
2022-10-24T19:19:07.042Z,71.02
2022-10-24T19:21:40.090Z,71.22
2022-10-24T19:24:14.906Z,71.25
2022-10-24T19:26:49.996Z,71.57
2022-10-24T19:29:23.010Z,71.56
2022-10-24T19:31:55.897Z,72.37
2022-10-24T19:34:31.903Z,71.57
2022-10-24T19:37:04.984Z,71.64
2022-10-24T19:39:39.707Z,71.16
2022-10-24T19:42:15.489Z,71.51
2022-10-24T19:44:54.599Z,71.55
2022-10-24T19:47:27.743Z,71.42
2022-10-24T19:50:01.538Z,71.06
2022-10-24T19:52:34.566Z,72.19
2022-10-24T19:55:09.103Z,71.77
2022-10-24T19:57:43.340Z,71.62
2022-10-24T20:00:18.524Z,71.80
2022-10-24T20:02:53.033Z,71.58
2022-10-24T20:05:27.965Z,71.76
2022-10-24T20:08:00.848Z,71.89
2022-10-24T20:10:36.053Z,71.89
2022-10-24T20:13:11.091Z,71.48
2022-10-24T20:15:44.607Z,71.72
2022-10-24T20:18:20.924Z,72.30
2022-10-24T20:20:54.673Z,72.21
2022-10-24T20:23:30.076Z,72.11
2022-10-24T20:26:09.836Z,72.10
2022-10-24T20:28:44.783Z,72.90
2022-10-24T20:31:26.449Z,71.91
2022-10-24T20:34:06.747Z,72.06
2022-10-24T20:36:44.808Z,71.73
2022-10-24T20:39:21.237Z,71.78
2022-10-24T20:41:59.019Z,71.97
2022-10-24T20:44:34.175Z,72.35
2022-10-24T20:47:07.011Z,72.06
2022-10-24T20:49:39.674Z,71.61
2022-10-24T20:54:50.108Z,71.71
2022-10-24T20:57:24.365Z,71.91
2022-10-24T20:59:58.402Z,72.28
2022-10-24T21:02:31.902Z,71.46
2022-10-24T21:05:05.919Z,72.27
2022-10-24T21:07:40.457Z,72.22
2022-10-24T21:10:13.441Z,71.95
2022-10-24T21:12:48.026Z,71.93
2022-10-24T21:15:21.252Z,72.31
2022-10-24T21:17:54.154Z,72.16
2022-10-24T21:20:27.198Z,72.28
2022-10-24T21:23:02.795Z,72.00
2022-10-24T21:25:35.723Z,72.46
2022-10-24T21:28:13.836Z,72.49
2022-10-24T21:30:48.093Z,71.78
2022-10-24T21:33:21.188Z,72.08
2022-10-24T21:35:56.222Z,72.17
2022-10-24T21:38:29.192Z,72.77
2022-10-24T21:41:02.823Z,72.01
2022-10-24T21:43:41.000Z,72.68
2022-10-24T21:46:16.267Z,72.20
2022-10-24T21:48:50.874Z,72.21
2022-10-24T21:51:26.139Z,72.28
2022-10-24T21:54:01.080Z,72.44
2022-10-24T21:56:37.038Z,72.37
2022-10-24T21:59:14.384Z,72.71
2022-10-24T22:01:53.000Z,72.44
2022-10-24T22:04:26.190Z,72.22
2022-10-24T22:06:59.146Z,72.54
2022-10-24T22:09:33.983Z,71.86
2022-10-24T22:12:07.225Z,72.02
2022-10-24T22:14:43.940Z,72.21
2022-10-24T22:17:22.335Z,72.63
2022-10-24T22:19:55.254Z,72.44
2022-10-24T22:22:28.010Z,72.13
2022-10-24T22:25:01.245Z,72.47
2022-10-24T22:27:35.610Z,72.35
2022-10-24T22:30:10.886Z,72.45
2022-10-24T22:32:44.474Z,72.69
2022-10-24T22:35:18.514Z,72.45
2022-10-24T22:37:56.031Z,72.91
2022-10-24T22:40:31.315Z,72.95
2022-10-24T22:43:04.515Z,72.58
2022-10-24T22:45:41.690Z,72.84
2022-10-24T22:48:22.395Z,72.64
2022-10-24T22:50:59.388Z,72.76
2022-10-24T22:53:32.850Z,72.49
2022-10-24T22:56:14.564Z,72.47
2022-10-24T22:58:47.862Z,72.70
2022-10-24T23:01:33.634Z,72.74
2022-10-24T23:04:21.863Z,73.39
2022-10-24T23:06:59.360Z,72.56
2022-10-24T23:09:32.185Z,72.62
2022-10-24T23:12:14.439Z,72.75
2022-10-24T23:14:50.543Z,72.75
2022-10-24T23:17:27.753Z,72.77
2022-10-24T23:20:01.674Z,72.74
2022-10-24T23:22:34.898Z,72.72
2022-10-24T23:25:10.046Z,73.20
2022-10-24T23:27:45.213Z,72.71
2022-10-24T23:30:24.376Z,72.64
2022-10-24T23:32:59.758Z,72.79
2022-10-24T23:35:33.147Z,73.29
2022-10-24T23:38:12.079Z,72.34
2022-10-24T23:40:45.370Z,73.26
2022-10-24T23:43:22.054Z,72.97
2022-10-24T23:46:00.421Z,73.11
2022-10-24T23:48:47.908Z,73.50
2022-10-24T23:51:30.976Z,73.23
2022-10-24T23:54:06.219Z,73.40
2022-10-24T23:56:39.936Z,73.17
2022-10-24T23:59:12.875Z,72.89
